createdAt,value
2022-09-21T11:16:39.453Z,43.3
2022-09-21T11:21:40.629Z,42.6
2022-09-21T11:26:37.134Z,41.3
2022-09-21T11:31:43.005Z,40
2022-09-21T11:36:42.384Z,39.8
2022-09-21T11:41:45.929Z,39.7
2022-09-21T11:46:39.654Z,39.1
2022-09-21T11:51:49.871Z,39
2022-09-21T11:56:41.004Z,38.7
2022-09-21T12:01:47.424Z,38.4
2022-09-21T12:06:48.768Z,38.2
2022-09-21T12:11:39.403Z,37.9
2022-09-21T12:16:43.489Z,37.7
2022-09-21T12:21:39.380Z,37.3
2022-09-21T12:26:39.160Z,37.3
2022-09-21T12:31:42.236Z,36.6
2022-09-21T12:36:41.676Z,37
2022-09-21T12:41:38.829Z,36.8
2022-09-21T12:46:39.925Z,36.7
2022-09-21T12:51:37.545Z,36.5
2022-09-21T12:56:41.918Z,34.6
2022-09-21T13:01:41.605Z,32.8
2022-09-21T13:07:08.302Z,33.4
2022-09-21T13:11:50.534Z,33.7
2022-09-21T13:16:38.497Z,33.9
2022-09-21T13:21:35.533Z,34.3
2022-09-21T13:26:39.060Z,34.7
2022-09-21T13:31:42.173Z,35
2022-09-21T13:36:35.652Z,34.8
2022-09-21T13:41:58.947Z,34.5
2022-09-21T13:46:53.630Z,34.3
2022-09-21T13:51:50.789Z,33.3
2022-09-21T13:56:35.740Z,32.6
2022-09-21T14:01:46.407Z,32.7
2022-09-21T14:06:42.833Z,33.2
2022-09-21T14:11:38.058Z,33.7
2022-09-21T14:16:55.357Z,33.8
2022-09-21T14:21:36.984Z,34
2022-09-21T14:26:49.443Z,34.3
2022-09-21T14:31:38.089Z,34.5
2022-09-21T14:36:41.397Z,34.9
2022-09-21T14:41:40.044Z,35.1
2022-09-21T14:46:59.738Z,35.4
2022-09-21T14:51:55.857Z,35.7
2022-09-21T14:56:53.820Z,35.9
2022-09-21T15:01:39.746Z,36
2022-09-21T15:06:48.456Z,36.2
2022-09-21T15:11:46.152Z,36.4
2022-09-21T15:16:41.259Z,36.3
2022-09-21T15:21:41.735Z,36.5
2022-09-21T15:26:39.668Z,36.4
2022-09-21T15:31:41.499Z,35.8
2022-09-21T15:36:41.718Z,33.8
2022-09-21T15:41:42.058Z,32.1
2022-09-21T15:46:42.986Z,31.2
2022-09-21T15:51:42.797Z,31.5
2022-09-21T15:56:43.445Z,32
2022-09-21T16:01:44.956Z,30.9
2022-09-21T16:06:43.565Z,30.2
2022-09-21T16:11:41.771Z,29.8
2022-09-21T16:17:05.546Z,29.4
2022-09-21T16:21:41.807Z,29.3
2022-09-21T16:26:41.561Z,28.9
2022-09-21T16:31:49.710Z,28.9
2022-09-21T16:36:43.289Z,28.9
2022-09-21T16:41:45.957Z,29.1
2022-09-21T16:46:41.620Z,29.3
2022-09-21T16:51:42.052Z,29.3
2022-09-21T16:56:41.381Z,30.3
2022-09-21T17:01:42.137Z,30.3
2022-09-21T17:06:41.981Z,30.8
2022-09-21T17:11:41.485Z,31.3
2022-09-21T17:16:44.633Z,31.2
2022-09-21T17:21:42.051Z,31.2
2022-09-21T17:26:41.527Z,31.9
2022-09-21T17:31:41.845Z,32.5
2022-09-21T17:36:42.153Z,32.9
2022-09-21T17:41:48.592Z,33.1
2022-09-21T17:46:50.827Z,33.3
2022-09-21T17:51:43.348Z,33.5
2022-09-21T17:57:50.605Z,33.9
2022-09-21T18:02:43.556Z,33.2
2022-09-21T18:07:45.079Z,33.3
2022-09-21T18:12:56.765Z,33.6
2022-09-21T18:17:56.548Z,33.7
2022-09-21T18:22:55.958Z,33.8
2022-09-21T18:27:46.792Z,34
2022-09-21T18:32:56.431Z,34.3
2022-09-21T18:37:55.862Z,34.6
2022-09-21T18:42:51.453Z,34.6
2022-09-21T18:47:56.600Z,34.6
2022-09-21T18:52:53.842Z,34.7
2022-09-21T18:57:45.774Z,34.7
2022-09-21T19:03:05.442Z,34.6
2022-09-21T19:07:53.789Z,34.7
2022-09-21T19:12:57.364Z,34.7
2022-09-21T19:18:00.432Z,34.7
2022-09-21T19:22:54.019Z,34.8
2022-09-21T19:27:51.744Z,34.8
2022-09-21T19:32:47.320Z,34.8
2022-09-21T19:37:46.095Z,34.7
2022-09-21T19:42:57.641Z,34.8
2022-09-21T19:47:50.630Z,33.9
2022-09-21T19:52:46.636Z,34.5
2022-09-21T19:57:46.289Z,35.1
2022-09-21T20:02:57.245Z,35.4
2022-09-21T20:07:50.776Z,35.3
2022-09-21T20:12:54.678Z,35.1
2022-09-21T20:17:50.481Z,35.1
2022-09-21T20:22:46.825Z,35
2022-09-21T20:27:48.965Z,35
2022-09-21T20:32:50.166Z,34.9
2022-09-21T20:37:46.405Z,34.9
2022-09-21T20:42:47.354Z,34.2
2022-09-21T20:47:47.948Z,33.5
2022-09-21T20:52:47.405Z,34.6
2022-09-21T20:57:47.431Z,34.9
2022-09-21T21:02:47.300Z,34.9
2022-09-21T21:07:47.172Z,34.9
2022-09-21T21:12:47.191Z,34.9
2022-09-21T21:17:47.216Z,35
2022-09-21T21:22:49.469Z,35
2022-09-21T21:27:47.352Z,33.9
2022-09-21T21:32:47.756Z,34.1
2022-09-21T21:37:46.841Z,35
2022-09-21T21:42:47.725Z,35.1
2022-09-21T21:47:48.751Z,35.1
2022-09-21T21:52:49.923Z,35
2022-09-21T21:57:49.900Z,35
2022-09-21T22:02:49.875Z,34.9
2022-09-21T22:07:51.469Z,34.9
2022-09-21T22:12:51.340Z,34.9
2022-09-21T22:17:51.344Z,34.8
2022-09-21T22:22:51.316Z,34.8
2022-09-21T22:27:51.130Z,34.8
2022-09-21T22:32:51.878Z,34.7
2022-09-21T22:37:52.782Z,34.7
2022-09-21T22:42:53.611Z,34.7
2022-09-21T22:47:53.551Z,34.7
2022-09-21T22:52:53.685Z,34.6
2022-09-21T22:57:53.637Z,34.6
2022-09-21T23:02:54.566Z,34.6
2022-09-21T23:07:53.715Z,34.5
2022-09-21T23:12:53.413Z,34.5
2022-09-21T23:17:53.268Z,34.5
2022-09-21T23:22:53.294Z,34.5
2022-09-21T23:27:58.254Z,34.5
2022-09-21T23:32:53.140Z,34.5
2022-09-21T23:37:53.173Z,34.4
2022-09-21T23:42:52.964Z,34.4
2022-09-21T23:47:53.708Z,34.4
2022-09-21T23:52:54.827Z,34.4
2022-09-21T23:57:54.792Z,34.4
